Wetterstation Vordersexau
Wetterdaten: Woche 24.06.13 - 30.06.13 (KW26)
Datum Zeit Temp. A. Feuchte A. Luftdruck Regen Wind Richtung Taupunkt Windchill Windben
24.06.2013 00:00 14,2 C 67 % 1016,9 hPa 0,0 l/m 0,0 km/h W 8,2 C 14,2 C 0,0 km/h
24.06.2013 01:00 14,9 C 66 % 1017,0 hPa 0,0 l/m 4,5 km/h W-NW 8,6 C 14,9 C 2,5 km/h
24.06.2013 02:00 13,1 C 75 % 1017,4 hPa 0,0 l/m 1,9 km/h W-SW 8,8 C 13,1 C 1,1 km/h
24.06.2013 03:00 12,9 C 79 % 1017,1 hPa 0,0 l/m 0,0 km/h W-NW 9,3 C 12,9 C 0,0 km/h
24.06.2013 04:00 12,6 C 79 % 1016,8 hPa 0,0 l/m 0,0 km/h N-NW 9,1 C 12,6 C 0,0 km/h
24.06.2013 05:00 12,3 C 82 % 1016,9 hPa 0,0 l/m 11,7 km/h NW 9,3 C 9,3 C 6,5 km/h
24.06.2013 06:00 12,0 C 81 % 1017,3 hPa 0,5 l/m 5,8 km/h W-NW 8,8 C 12,0 C 3,2 km/h
24.06.2013 07:00 12,3 C 78 % 1017,9 hPa 0,5 l/m 6,5 km/h W-NW 8,6 C 12,3 C 3,6 km/h
24.06.2013 08:00 13,3 C 78 % 1018,1 hPa 0,5 l/m 0,0 km/h W-NW 9,5 C 13,3 C 0,0 km/h
24.06.2013 09:00 16,3 C 77 % 1018,3 hPa 0,0 l/m 0,0 km/h W-NW 12,3 C 16,3 C 0,0 km/h
24.06.2013 10:00 18,8 C 68 % 1018,7 hPa 0,0 l/m 0,0 km/h N-NW 12,8 C 18,8 C 0,0 km/h
24.06.2013 11:00 15,8 C 76 % 1018,9 hPa 0,0 l/m 0,0 km/h NO 11,6 C 15,8 C 0,0 km/h
24.06.2013 12:00 18,9 C 67 % 1019,2 hPa 0,0 l/m 0,0 km/h N-NO 12,6 C 18,9 C 0,0 km/h
24.06.2013 13:00 19,2 C 62 % 1019,4 hPa 0,0 l/m 1,3 km/h N-NW 11,7 C 19,2 C 0,7 km/h
24.06.2013 14:00 20,7 C 56 % 1019,5 hPa 0,0 l/m 9,7 km/h N-NW 11,6 C 19,5 C 5,4 km/h
24.06.2013 15:00 19,9 C 57 % 1019,4 hPa 0,0 l/m 13,0 km/h NW 11,1 C 17,6 C 7,2 km/h
24.06.2013 16:00 22,6 C 48 % 1019,8 hPa 0,0 l/m 24,0 km/h N-NO 11,0 C 19,0 C 13,3 km/h
24.06.2013 17:00 17,1 C 68 % 1020,0 hPa 0,5 l/m 0,0 km/h O-NO 11,1 C 17,1 C 0,0 km/h
24.06.2013 18:00 18,2 C 58 % 1020,4 hPa 0,0 l/m 16,2 km/h N 9,8 C 14,8 C 9,0 km/h
24.06.2013 19:00 17,5 C 61 % 1020,6 hPa 0,0 l/m 0,0 km/h NO 9,9 C 17,5 C 0,0 km/h
24.06.2013 20:00 15,9 C 64 % 1021,0 hPa 0,0 l/m 0,0 km/h NW 9,1 C 15,9 C 0,0 km/h
24.06.2013 21:00 12,5 C 78 % 1021,7 hPa 0,5 l/m 0,0 km/h N 8,8 C 12,5 C 0,0 km/h
24.06.2013 22:00 12,6 C 80 % 1022,1 hPa 0,0 l/m 0,0 km/h NW 9,2 C 12,6 C 0,0 km/h
24.06.2013 23:00 12,3 C 81 % 1022,6 hPa 0,0 l/m 0,0 km/h N-NW 9,1 C 12,3 C 0,0 km/h
25.06.2013 00:00 11,8 C 82 % 1022,6 hPa 0,0 l/m 0,0 km/h S-SO 8,8 C 11,8 C 0,0 km/h
25.06.2013 01:00 11,4 C 81 % 1022,4 hPa 0,5 l/m 0,0 km/h S-SO 8,3 C 11,4 C 0,0 km/h
25.06.2013 02:00 11,3 C 81 % 1022,4 hPa 0,0 l/m 0,0 km/h NW 8,2 C 11,3 C 0,0 km/h
25.06.2013 03:00 11,1 C 81 % 1022,4 hPa 0,0 l/m 0,0 km/h W-SW 8,0 C 11,1 C 0,0 km/h
25.06.2013 04:00 11,0 C 80 % 1022,3 hPa 0,0 l/m 0,0 km/h O-SO 7,7 C 11,0 C 0,0 km/h
25.06.2013 05:00 10,4 C 79 % 1022,3 hPa 0,0 l/m 0,0 km/h S-SO 6,9 C 10,4 C 0,0 km/h
25.06.2013 06:00 10,8 C 77 % 1022,4 hPa 0,0 l/m 0,0 km/h SW 6,9 C 10,8 C 0,0 km/h
25.06.2013 07:00 11,8 C 76 % 1022,4 hPa 0,0 l/m 0,0 km/h NW 7,7 C 11,8 C 0,0 km/h
25.06.2013 08:00 13,4 C 83 % 1022,8 hPa 0,0 l/m 0,0 km/h W-NW 10,6 C 13,4 C 0,0 km/h
25.06.2013 09:00 13,3 C 79 % 1022,9 hPa 0,0 l/m 0,0 km/h S 9,7 C 13,3 C 0,0 km/h
25.06.2013 10:00 15,1 C 76 % 1022,8 hPa 0,0 l/m 1,3 km/h O-SO 10,9 C 15,1 C 0,7 km/h
25.06.2013 11:00 16,6 C 69 % 1023,0 hPa 0,0 l/m 0,0 km/h NO 10,9 C 16,6 C 0,0 km/h
25.06.2013 12:00 20,4 C 53 % 1023,0 hPa 0,0 l/m 6,5 km/h NW 10,5 C 20,4 C 3,6 km/h
25.06.2013 13:00 20,4 C 49 % 1022,9 hPa 0,0 l/m 16,8 km/h N-NW 9,3 C 17,3 C 9,4 km/h
25.06.2013 14:00 18,6 C 54 % 1023,0 hPa 0,0 l/m 0,0 km/h N-NO 9,1 C 18,6 C 0,0 km/h
25.06.2013 15:00 19,3 C 51 % 1023,3 hPa 0,0 l/m 0,0 km/h NO 8,9 C 19,3 C 0,0 km/h
25.06.2013 16:00 15,3 C 65 % 1023,9 hPa 0,0 l/m 0,0 km/h N 8,8 C 15,3 C 0,0 km/h
25.06.2013 17:00 17,9 C 59 % 1023,8 hPa 0,0 l/m 0,0 km/h O-SO 9,8 C 17,9 C 0,0 km/h
25.06.2013 18:00 14,3 C 75 % 1024,0 hPa 0,5 l/m 0,0 km/h S-SW 9,9 C 14,3 C 0,0 km/h
25.06.2013 19:00 14,4 C 76 % 1024,1 hPa 0,0 l/m 0,0 km/h N-NW 10,2 C 14,4 C 0,0 km/h
25.06.2013 20:00 12,9 C 81 % 1024,2 hPa 0,0 l/m 0,0 km/h W 9,7 C 12,9 C 0,0 km/h
25.06.2013 21:00 12,2 C 82 % 1024,5 hPa 0,0 l/m 0,0 km/h W 9,2 C 12,2 C 0,0 km/h
25.06.2013 22:00 11,6 C 82 % 1025,1 hPa 0,0 l/m 0,0 km/h N-NW 8,6 C 11,6 C 0,0 km/h
25.06.2013 23:00 11,9 C 81 % 1025,4 hPa 0,0 l/m 0,0 km/h W 8,7 C 11,9 C 0,0 km/h
26.06.2013 00:00 11,8 C 81 % 1025,1 hPa 0,0 l/m 0,0 km/h N-NO 8,6 C 11,8 C 0,0 km/h
26.06.2013 01:00 11,1 C 81 % 1025,1 hPa 0,0 l/m 0,0 km/h O-SO 8,0 C 11,1 C 0,0 km/h
26.06.2013 02:00 10,4 C 80 % 1025,2 hPa 0,0 l/m 0,0 km/h O 7,1 C 10,4 C 0,0 km/h
26.06.2013 03:00 9,9 C 78 % 1025,0 hPa 0,0 l/m 0,0 km/h SO 6,2 C 9,9 C 0,0 km/h
26.06.2013 04:00 9,1 C 79 % 1025,0 hPa 0,0 l/m 0,0 km/h O-NO 5,7 C 9,1 C 0,0 km/h
26.06.2013 05:00 8,3 C 79 % 1024,9 hPa 0,0 l/m 0,0 km/h O-SO 4,9 C 8,3 C 0,0 km/h
26.06.2013 06:00 8,6 C 77 % 1024,9 hPa 0,0 l/m 0,0 km/h S-SO 4,8 C 8,6 C 0,0 km/h
26.06.2013 07:00 10,4 C 69 % 1025,2 hPa 0,0 l/m 0,0 km/h S-SO 5,0 C 10,4 C 0,0 km/h
26.06.2013 08:00 13,5 C 81 % 1025,7 hPa 0,0 l/m 0,0 km/h N-NO 10,3 C 13,5 C 0,0 km/h
26.06.2013 09:00 21,3 C 59 % 1025,7 hPa 0,0 l/m 22,0 km/h NO 13,0 C 17,6 C 12,2 km/h
26.06.2013 10:00 18,8 C 61 % 1026,0 hPa 0,0 l/m 0,6 km/h NO 11,1 C 18,8 C 0,4 km/h
26.06.2013 11:00 20,2 C 51 % 1026,1 hPa 0,0 l/m 6,5 km/h N 9,7 C 20,2 C 3,6 km/h
26.06.2013 12:00 20,1 C 50 % 1026,1 hPa 0,0 l/m 0,0 km/h W-NW 9,3 C 20,1 C 0,0 km/h
26.06.2013 13:00 20,1 C 44 % 1026,0 hPa 0,0 l/m 0,0 km/h SW 7,5 C 20,1 C 0,0 km/h
26.06.2013 14:00 22,4 C 41 % 1025,6 hPa 0,0 l/m 3,2 km/h NO 8,5 C 22,4 C 1,8 km/h
26.06.2013 15:00 21,9 C 38 % 1025,3 hPa 0,0 l/m 0,6 km/h SO 6,9 C 21,9 C 0,4 km/h
26.06.2013 16:00 23,6 C 34 % 1025,0 hPa 0,0 l/m 0,0 km/h O-NO 6,8 C 23,6 C 0,0 km/h
26.06.2013 17:00 25,6 C 31 % 1024,9 hPa 0,0 l/m 3,9 km/h N 7,2 C 25,6 C 2,2 km/h
26.06.2013 18:00 23,9 C 34 % 1024,8 hPa 0,0 l/m 0,0 km/h N 7,1 C 23,9 C 0,0 km/h
26.06.2013 19:00 19,6 C 42 % 1024,9 hPa 0,0 l/m 1,3 km/h NO 6,3 C 19,6 C 0,7 km/h
26.06.2013 20:00 17,1 C 50 % 1024,9 hPa 0,0 l/m 0,0 km/h S-SO 6,6 C 17,1 C 0,0 km/h
26.06.2013 21:00 14,4 C 63 % 1025,0 hPa 0,0 l/m 0,0 km/h SO 7,4 C 14,4 C 0,0 km/h
26.06.2013 22:00 12,9 C 69 % 1025,1 hPa 0,0 l/m 0,0 km/h S-SO 7,4 C 12,9 C 0,0 km/h
26.06.2013 23:00 10,9 C 73 % 1025,2 hPa 0,0 l/m 0,0 km/h O-SO 6,3 C 10,9 C 0,0 km/h
27.06.2013 00:00 8,9 C 79 % 1025,2 hPa 0,0 l/m 0,0 km/h O-SO 5,5 C 8,9 C 0,0 km/h
27.06.2013 01:00 7,8 C 81 % 1024,5 hPa 0,0 l/m 0,0 km/h S-SO 4,7 C 7,8 C 0,0 km/h
27.06.2013 02:00 7,8 C 82 % 1024,0 hPa 0,0 l/m 0,0 km/h S 4,9 C 7,8 C 0,0 km/h
27.06.2013 03:00 8,3 C 83 % 1023,3 hPa 0,0 l/m 0,0 km/h S-SO 5,6 C 8,3 C 0,0 km/h
27.06.2013 04:00 8,9 C 82 % 1023,1 hPa 0,0 l/m 0,0 km/h S-SO 6,0 C 8,9 C 0,0 km/h
27.06.2013 05:00 8,9 C 82 % 1023,0 hPa 0,0 l/m 0,0 km/h S 6,0 C 8,9 C 0,0 km/h
27.06.2013 06:00 8,9 C 82 % 1022,8 hPa 0,0 l/m 3,2 km/h S-SO 6,0 C 8,9 C 1,8 km/h
27.06.2013 07:00 10,2 C 82 % 1022,9 hPa 0,0 l/m 0,0 km/h S 7,3 C 10,2 C 0,0 km/h
27.06.2013 08:00 11,6 C 80 % 1022,3 hPa 0,0 l/m 0,0 km/h S 8,3 C 11,6 C 0,0 km/h
27.06.2013 09:00 12,5 C 80 % 1022,5 hPa 0,0 l/m 0,0 km/h S 9,1 C 12,5 C 0,0 km/h
27.06.2013 10:00 13,5 C 80 % 1022,5 hPa 0,5 l/m 5,2 km/h N-NO 10,1 C 13,5 C 2,9 km/h
27.06.2013 11:00 13,9 C 77 % 1022,4 hPa 0,0 l/m 0,0 km/h NO 9,9 C 13,9 C 0,0 km/h
27.06.2013 12:00 12,3 C 81 % 1022,6 hPa 1,6 l/m 0,0 km/h S-SO 9,1 C 12,3 C 0,0 km/h
27.06.2013 13:00 14,6 C 81 % 1022,1 hPa 1,0 l/m 0,0 km/h SW 11,4 C 14,6 C 0,0 km/h
27.06.2013 14:00 19,1 C 70 % 1021,7 hPa 0,0 l/m 3,2 km/h NO 13,5 C 19,1 C 1,8 km/h
27.06.2013 15:00 18,9 C 64 % 1021,4 hPa 0,0 l/m 0,0 km/h W 11,9 C 18,9 C 0,0 km/h
27.06.2013 16:00 20,5 C 62 % 1021,4 hPa 0,0 l/m 0,6 km/h S-SW 13,0 C 20,5 C 0,4 km/h
27.06.2013 17:00 24,7 C 49 % 1020,7 hPa 0,0 l/m 6,5 km/h SW 13,3 C 24,7 C 3,6 km/h
27.06.2013 18:00 19,3 C 54 % 1020,6 hPa 0,0 l/m 0,6 km/h S-SW 9,8 C 19,3 C 0,4 km/h
27.06.2013 19:00 13,7 C 75 % 1020,6 hPa 0,0 l/m 0,0 km/h S-SO 9,3 C 13,7 C 0,0 km/h
27.06.2013 20:00 12,8 C 81 % 1020,5 hPa 0,0 l/m 14,3 km/h O-SO 9,6 C 8,8 C 7,9 km/h
27.06.2013 21:00 12,1 C 82 % 1021,0 hPa 0,0 l/m 0,0 km/h S-SO 9,1 C 12,1 C 0,0 km/h
27.06.2013 22:00 10,2 C 82 % 1021,2 hPa 0,0 l/m 0,0 km/h S-SO 7,3 C 10,2 C 0,0 km/h
27.06.2013 23:00 9,6 C 82 % 1021,1 hPa 0,0 l/m 0,0 km/h S-SO 6,7 C 9,6 C 0,0 km/h
28.06.2013 00:00 9,6 C 81 % 1021,1 hPa 0,0 l/m 0,0 km/h NO 6,5 C 9,6 C 0,0 km/h
28.06.2013 01:00 10,0 C 78 % 1021,0 hPa 2,6 l/m 0,0 km/h O-NO 6,3 C 10,0 C 0,0 km/h
28.06.2013 02:00 9,7 C 78 % 1020,6 hPa 0,5 l/m 0,0 km/h O-SO 6,1 C 9,7 C 0,0 km/h
28.06.2013 03:00 9,6 C 77 % 1020,2 hPa 0,0 l/m 0,0 km/h S-SO 5,8 C 9,6 C 0,0 km/h
28.06.2013 04:00 9,2 C 77 % 1019,9 hPa 0,0 l/m 0,0 km/h O-SO 5,4 C 9,2 C 0,0 km/h
28.06.2013 05:00 8,3 C 78 % 1019,7 hPa 0,0 l/m 0,0 km/h S-SO 4,7 C 8,3 C 0,0 km/h
28.06.2013 06:00 7,9 C 77 % 1019,8 hPa 0,0 l/m 0,0 km/h S-SO 4,1 C 7,9 C 0,0 km/h
28.06.2013 07:00 9,6 C 71 % 1019,7 hPa 0,0 l/m 0,0 km/h NO 4,6 C 9,6 C 0,0 km/h
28.06.2013 08:00 18,2 C 73 % 1019,6 hPa 0,0 l/m 0,0 km/h S-SO 13,3 C 18,2 C 0,0 km/h
28.06.2013 09:00 17,1 C 68 % 1019,6 hPa 0,0 l/m 0,0 km/h W-NW 11,1 C 17,1 C 0,0 km/h
28.06.2013 10:00 20,9 C 62 % 1019,6 hPa 0,0 l/m 0,0 km/h W 13,3 C 20,9 C 0,0 km/h
28.06.2013 11:00 18,2 C 60 % 1019,4 hPa 0,0 l/m 0,0 km/h N 10,3 C 18,2 C 0,0 km/h
28.06.2013 12:00 18,5 C 60 % 1019,3 hPa 0,0 l/m 0,0 km/h S-SO 10,6 C 18,5 C 0,0 km/h
28.06.2013 13:00 22,6 C 50 % 1018,7 hPa 0,0 l/m 1,9 km/h NW 11,6 C 22,6 C 1,1 km/h
28.06.2013 14:00 22,3 C 44 % 1018,3 hPa 0,0 l/m 9,7 km/h N-NO 9,5 C 21,3 C 5,4 km/h
28.06.2013 15:00 25,2 C 39 % 1018,6 hPa 0,0 l/m 0,0 km/h N-NW 10,2 C 25,2 C 0,0 km/h
28.06.2013 16:00 26,6 C 35 % 1018,1 hPa 0,0 l/m 0,6 km/h W-NW 9,9 C 26,6 C 0,4 km/h
28.06.2013 17:00 23,6 C 38 % 1018,3 hPa 0,0 l/m 24,0 km/h W-NW 8,4 C 20,4 C 13,3 km/h
28.06.2013 18:00 20,5 C 45 % 1018,3 hPa 0,0 l/m 0,0 km/h W 8,2 C 20,5 C 0,0 km/h
28.06.2013 19:00 19,9 C 50 % 1018,3 hPa 0,0 l/m 0,0 km/h W-NW 9,2 C 19,9 C 0,0 km/h
28.06.2013 20:00 17,2 C 63 % 1018,5 hPa 0,0 l/m 0,0 km/h S 10,1 C 17,2 C 0,0 km/h
28.06.2013 21:00 15,1 C 69 % 1019,0 hPa 0,0 l/m 0,0 km/h S-SO 9,5 C 15,1 C 0,0 km/h
28.06.2013 22:00 13,4 C 76 % 1020,1 hPa 0,0 l/m 0,0 km/h O-SO 9,3 C 13,4 C 0,0 km/h
28.06.2013 23:00 11,6 C 80 % 1020,1 hPa 0,0 l/m 0,0 km/h S-SO 8,3 C 11,6 C 0,0 km/h
29.06.2013 00:00 10,5 C 81 % 1020,1 hPa 0,0 l/m 0,0 km/h S-SO 7,4 C 10,5 C 0,0 km/h
29.06.2013 01:00 10,6 C 82 % 1019,9 hPa 0,0 l/m 0,0 km/h S-SO 7,7 C 10,6 C 0,0 km/h
29.06.2013 02:00 10,9 C 82 % 1019,5 hPa 0,0 l/m 0,0 km/h W-SW 7,9 C 10,9 C 0,0 km/h
29.06.2013 03:00 12,9 C 81 % 1019,0 hPa 0,0 l/m 5,2 km/h W-SW 9,7 C 12,9 C 2,9 km/h
29.06.2013 04:00 13,5 C 78 % 1018,3 hPa 0,0 l/m 18,1 km/h W-SW 9,7 C 8,4 C 10,1 km/h
29.06.2013 05:00 13,4 C 78 % 1018,2 hPa 0,0 l/m 7,8 km/h S-SW 9,6 C 12,5 C 4,3 km/h
29.06.2013 06:00 12,5 C 82 % 1018,0 hPa 0,0 l/m 0,0 km/h W-NW 9,5 C 12,5 C 0,0 km/h
29.06.2013 07:00 12,5 C 81 % 1017,4 hPa 0,5 l/m 1,9 km/h W 9,3 C 12,5 C 1,1 km/h
29.06.2013 08:00 12,6 C 78 % 1017,5 hPa 1,6 l/m 18,8 km/h SW 8,9 C 7,0 C 10,4 km/h
29.06.2013 09:00 12,8 C 76 % 1016,9 hPa 2,6 l/m 2,6 km/h W-SW 8,7 C 12,8 C 1,4 km/h
29.06.2013 10:00 13,3 C 77 % 1017,1 hPa 1,0 l/m 7,1 km/h NW 9,4 C 12,9 C 4,0 km/h
29.06.2013 11:00 13,6 C 76 % 1017,0 hPa 1,6 l/m 4,5 km/h SW 9,4 C 13,6 C 2,5 km/h
29.06.2013 12:00 14,4 C 74 % 1017,0 hPa 1,0 l/m 15,6 km/h W 9,8 C 10,3 C 8,6 km/h
29.06.2013 13:00 15,3 C 78 % 1016,9 hPa 1,0 l/m 0,0 km/h N 11,5 C 15,3 C 0,0 km/h
29.06.2013 14:00 15,6 C 79 % 1017,0 hPa 0,5 l/m 0,0 km/h W-NW 12,0 C 15,6 C 0,0 km/h
29.06.2013 15:00 15,7 C 77 % 1017,1 hPa 1,6 l/m 3,9 km/h NW 11,7 C 15,7 C 2,2 km/h
29.06.2013 16:00 18,9 C 82 % 1017,7 hPa 1,6 l/m 3,9 km/h SW 15,8 C 18,9 C 2,2 km/h
29.06.2013 17:00 22,7 C 69 % 1017,8 hPa 0,0 l/m 3,9 km/h W 16,7 C 22,7 C 2,2 km/h
29.06.2013 18:00 24,3 C 61 % 1017,8 hPa 0,0 l/m 1,9 km/h NW 16,3 C 24,3 C 1,1 km/h
29.06.2013 19:00 18,9 C 71 % 1018,2 hPa 0,0 l/m 2,6 km/h N-NW 13,5 C 18,9 C 1,4 km/h
29.06.2013 20:00 18,8 C 72 % 1019,1 hPa 0,0 l/m 0,0 km/h NW 13,6 C 18,8 C 0,0 km/h
29.06.2013 21:00 16,3 C 78 % 1019,8 hPa 0,0 l/m 0,0 km/h W 12,5 C 16,3 C 0,0 km/h
29.06.2013 22:00 13,6 C 81 % 1020,8 hPa 0,0 l/m 0,0 km/h O 10,4 C 13,6 C 0,0 km/h
29.06.2013 23:00 13,9 C 80 % 1021,6 hPa 0,0 l/m 0,0 km/h S-SO 10,5 C 13,9 C 0,0 km/h
30.06.2013 00:00 13,8 C 80 % 1021,7 hPa 0,0 l/m 0,0 km/h O-SO 10,4 C 13,8 C 0,0 km/h
30.06.2013 01:00 13,6 C 78 % 1021,7 hPa 0,0 l/m 0,0 km/h O 9,8 C 13,6 C 0,0 km/h
30.06.2013 02:00 12,9 C 77 % 1021,7 hPa 0,0 l/m 0,0 km/h O-SO 9,0 C 12,9 C 0,0 km/h
30.06.2013 03:00 11,6 C 77 % 1021,7 hPa 0,0 l/m 0,0 km/h O-NO 7,7 C 11,6 C 0,0 km/h
30.06.2013 04:00 10,8 C 75 % 1021,4 hPa 0,0 l/m 0,0 km/h O-NO 6,5 C 10,8 C 0,0 km/h
30.06.2013 05:00 10,2 C 75 % 1021,6 hPa 0,0 l/m 0,0 km/h SO 6,0 C 10,2 C 0,0 km/h
30.06.2013 06:00 10,4 C 73 % 1021,9 hPa 0,0 l/m 0,0 km/h S 5,8 C 10,4 C 0,0 km/h
30.06.2013 07:00 12,4 C 67 % 1022,1 hPa 0,0 l/m 0,0 km/h O-SO 6,4 C 12,4 C 0,0 km/h
30.06.2013 08:00 20,6 C 76 % 1021,9 hPa 0,0 l/m 0,0 km/h NO 16,2 C 20,6 C 0,0 km/h
30.06.2013 09:00 17,3 C 79 % 1022,2 hPa 0,0 l/m 0,0 km/h N 13,6 C 17,3 C 0,0 km/h
30.06.2013 10:00 20,8 C 71 % 1022,1 hPa 0,0 l/m 1,9 km/h O-SO 15,3 C 20,8 C 1,1 km/h
30.06.2013 11:00 26,2 C 54 % 1021,7 hPa 0,0 l/m 0,0 km/h N 16,1 C 26,2 C 0,0 km/h
30.06.2013 12:00 23,8 C 53 % 1021,7 hPa 0,0 l/m 5,2 km/h NW 13,6 C 23,8 C 2,9 km/h
30.06.2013 13:00 24,9 C 50 % 1021,2 hPa 0,0 l/m 7,1 km/h W-NW 13,7 C 24,7 C 4,0 km/h
30.06.2013 14:00 23,4 C 48 % 1020,9 hPa 0,0 l/m 2,6 km/h N-NW 11,8 C 23,4 C 1,4 km/h
30.06.2013 15:00 23,7 C 47 % 1020,6 hPa 0,0 l/m 1,3 km/h N 11,7 C 23,7 C 0,7 km/h
30.06.2013 16:00 25,3 C 45 % 1020,2 hPa 0,0 l/m 0,0 km/h W-NW 12,5 C 25,3 C 0,0 km/h
30.06.2013 17:00 32,1 C 35 % 1020,1 hPa 0,0 l/m 1,9 km/h N-NW 14,7 C 32,1 C 1,1 km/h
30.06.2013 18:00 27,3 C 39 % 1019,7 hPa 0,0 l/m 3,2 km/h N-NO 12,1 C 27,3 C 1,8 km/h
30.06.2013 19:00 23,0 C 45 % 1019,5 hPa 0,0 l/m 6,5 km/h NO 10,4 C 23,0 C 3,6 km/h
30.06.2013 20:00 19,9 C 57 % 1019,4 hPa 0,0 l/m 0,0 km/h S-SO 11,1 C 19,9 C 0,0 km/h
30.06.2013 21:00 17,3 C 68 % 1019,5 hPa 0,0 l/m 0,0 km/h O-SO 11,3 C 17,3 C 0,0 km/h
30.06.2013 22:00 14,3 C 76 % 1019,8 hPa 0,0 l/m 0,0 km/h S-SO 10,1 C 14,3 C 0,0 km/h
30.06.2013 23:00 12,4 C 81 % 1020,0 hPa 0,0 l/m 0,0 km/h S-SO 9,2 C 12,4 C 0,0 km/h
Min-Datum _ 27.06.13 26.06.13 24.06.13 - 24.06.13 - 28.06.13 29.06.13 24.06.13
_ Min-Zeit 01:19 17:19 04:19 - 00:19 - 06:19 08:19 00:19
Minimum _ 7,8 C 31 % 1016,8 hPa - 0,0 km/h - 4,1 C 7,0 C 0,0 km/h
Max-Datum _ 30.06.13 25.06.13 26.06.13 28.06.13 24.06.13 - 29.06.13 30.06.13 24.06.13
_ Max-Zeit 17:19 08:19 11:19 01:19 16:19 - 17:19 17:19 16:19
Maximum _ 32,1 C 83 % 1026,1 hPa 2,6 l/m 24,0 km/h
N-NO
- 16,7 C 32,1 C 13,3 km/h
N-NO
Durchschnitt _ 15,5 C 69 % 1021,2 hPa #22,8 l/m 2,1 km/h S-SO 9,4 C 15,2 C 1,2 km/h
www.sexauwetter.de